createdAt,value
2017-09-15T11:09:29.893Z,61.54
2017-09-15T11:10:40.193Z,63.18
2017-09-15T11:11:50.146Z,62.93
2017-09-15T11:13:01.887Z,63.22
2017-09-15T11:14:12.314Z,62.31
2017-09-15T11:15:23.225Z,63.82
2017-09-15T11:16:35.381Z,62.17
2017-09-15T11:17:48.288Z,62.92
2017-09-15T11:19:00.245Z,61.79
2017-09-15T11:20:11.361Z,61.93
2017-09-15T11:21:21.987Z,61.49
2017-09-15T11:22:35.521Z,61.79
2017-09-15T11:23:51.204Z,60.97
2017-09-15T11:25:04.017Z,61.80
2017-09-15T11:26:16.023Z,61.68
2017-09-15T11:27:28.010Z,62.56
2017-09-15T11:28:42.152Z,61.82
2017-09-15T11:29:53.904Z,61.70
2017-09-15T11:31:08.488Z,60.68
2017-09-15T11:32:17.983Z,60.61
2017-09-15T11:33:27.911Z,62.72
2017-09-15T11:34:37.095Z,61.68
2017-09-15T11:35:49.349Z,61.36
2017-09-15T11:37:02.846Z,62.10
2017-09-15T11:38:14.004Z,62.37
2017-09-15T11:39:23.886Z,62.46
2017-09-15T11:40:34.971Z,61.27
2017-09-15T11:41:50.125Z,62.89
2017-09-15T11:43:02.753Z,63.38
2017-09-15T11:44:17.428Z,63.86
2017-09-15T11:45:35.097Z,64.26
2017-09-15T11:48:33.888Z,64.36
2017-09-15T11:49:44.633Z,63.15
2017-09-15T11:50:53.912Z,63.39
2017-09-15T11:52:04.922Z,63.03
2017-09-15T11:53:17.014Z,63.67
2017-09-15T11:54:35.954Z,64.00
2017-09-15T11:55:48.113Z,62.39
2017-09-15T11:56:59.968Z,63.22
2017-09-15T11:58:10.087Z,62.86
2017-09-15T11:59:22.083Z,62.50
2017-09-15T12:00:35.004Z,63.01
2017-09-15T12:01:49.948Z,62.17
2017-09-15T12:03:01.147Z,61.90
2017-09-15T12:04:15.217Z,59.96
2017-09-15T12:05:24.808Z,60.56
2017-09-15T12:06:38.115Z,60.42
2017-09-15T12:07:50.944Z,60.46
2017-09-15T12:09:02.937Z,60.92
2017-09-15T12:10:12.918Z,59.89
2017-09-15T12:11:23.917Z,61.43
2017-09-15T12:12:34.723Z,59.03
2017-09-15T12:13:43.246Z,60.78
2017-09-15T12:14:52.814Z,62.11
2017-09-15T12:16:07.409Z,62.01
2017-09-15T12:17:18.846Z,61.31
2017-09-15T12:18:28.078Z,62.98
2017-09-15T12:19:36.951Z,62.96
2017-09-15T12:20:46.027Z,62.43
2017-09-15T12:21:54.902Z,61.10
2017-09-15T12:23:02.953Z,60.86
2017-09-15T12:24:11.771Z,60.60
2017-09-15T12:25:20.766Z,60.00
2017-09-15T12:26:30.870Z,60.58
2017-09-15T12:27:39.846Z,59.09
2017-09-15T12:28:48.917Z,59.18
2017-09-15T12:29:58.334Z,57.95
2017-09-15T12:31:08.011Z,55.99
2017-09-15T12:32:16.705Z,56.05
2017-09-15T12:33:25.944Z,55.91
2017-09-15T12:34:34.802Z,54.60
2017-09-15T12:35:45.127Z,54.23
2017-09-15T12:36:54.755Z,55.56
2017-09-15T12:38:04.892Z,56.98
2017-09-15T12:39:14.766Z,56.18
2017-09-15T12:40:24.850Z,55.59
2017-09-15T12:41:34.864Z,55.88
2017-09-15T12:42:44.843Z,55.40
2017-09-15T12:43:53.882Z,55.45
2017-09-15T12:45:02.926Z,56.59
2017-09-15T12:46:11.710Z,55.69
2017-09-15T12:47:21.856Z,55.90
2017-09-15T12:48:31.858Z,56.45
2017-09-15T12:49:40.904Z,56.12
2017-09-15T12:50:50.193Z,56.69
2017-09-15T12:52:00.798Z,56.79
2017-09-15T12:53:10.757Z,56.41
2017-09-15T12:54:20.816Z,55.81
2017-09-15T12:55:30.850Z,55.92
2017-09-15T12:56:40.855Z,55.96
2017-09-15T12:57:50.145Z,55.16
2017-09-15T12:58:59.871Z,56.44
2017-09-15T13:00:09.008Z,55.77
2017-09-15T13:01:17.794Z,54.81
2017-09-15T13:02:28.829Z,54.25
2017-09-15T13:03:38.867Z,55.36
2017-09-15T13:04:47.742Z,57.04
2017-09-15T13:05:57.777Z,54.05
2017-09-15T13:07:06.771Z,53.58
2017-09-15T13:08:16.852Z,53.95
2017-09-15T13:09:25.834Z,53.48
2017-09-15T13:10:34.857Z,54.49
2017-09-15T13:11:44.821Z,54.24
2017-09-15T13:12:54.568Z,54.61
2017-09-15T13:14:04.511Z,54.25
2017-09-15T13:15:13.831Z,54.08
2017-09-15T13:16:22.914Z,53.86
2017-09-15T13:17:32.862Z,54.22
2017-09-15T13:18:42.722Z,53.73
2017-09-15T13:19:51.790Z,54.21
2017-09-15T13:21:01.901Z,53.38
2017-09-15T13:22:10.498Z,52.98
2017-09-15T13:23:19.930Z,52.52
2017-09-15T13:24:29.750Z,54.81
2017-09-15T13:25:40.809Z,55.25
2017-09-15T13:26:50.831Z,54.37
2017-09-15T13:28:00.789Z,52.86
2017-09-15T13:29:09.803Z,53.02
2017-09-15T13:30:19.705Z,54.79
2017-09-15T13:31:29.837Z,53.96
2017-09-15T13:32:39.948Z,52.80
2017-09-15T13:33:49.707Z,53.31
2017-09-15T13:34:59.757Z,54.49
2017-09-15T13:36:09.741Z,54.50
2017-09-15T13:37:19.837Z,55.23
2017-09-15T13:38:29.934Z,53.84
2017-09-15T13:39:39.784Z,54.15
2017-09-15T13:40:49.651Z,54.40
2017-09-15T13:41:59.779Z,54.47
2017-09-15T13:43:09.749Z,54.81
2017-09-15T13:44:19.747Z,54.15
2017-09-15T13:45:29.804Z,54.76
2017-09-15T13:46:39.002Z,53.96
2017-09-15T13:47:47.711Z,55.59
2017-09-15T13:48:57.720Z,55.16
2017-09-15T13:50:07.307Z,55.74
2017-09-15T13:51:16.715Z,55.96
2017-09-15T13:52:26.692Z,57.76
2017-09-15T13:53:35.762Z,55.46
2017-09-15T13:54:45.595Z,56.58
2017-09-15T13:55:55.014Z,57.11
2017-09-15T13:57:03.602Z,57.28
2017-09-15T13:58:12.638Z,56.25
2017-09-15T13:59:21.642Z,56.44
2017-09-15T14:00:29.673Z,57.72
2017-09-15T14:01:38.536Z,57.24
2017-09-15T14:02:46.714Z,58.04
2017-09-15T14:03:55.579Z,57.31
2017-09-15T14:05:04.944Z,57.94
2017-09-15T14:06:13.576Z,58.77
2017-09-15T14:07:22.716Z,57.75
2017-09-15T14:08:31.772Z,58.66
2017-09-15T14:09:41.737Z,56.54
2017-09-15T14:10:51.519Z,57.83
2017-09-15T14:12:00.765Z,56.74
2017-09-15T14:13:11.660Z,56.66
2017-09-15T14:14:20.626Z,58.58
2017-09-15T14:15:30.656Z,57.04
2017-09-15T14:16:40.631Z,57.05
2017-09-15T14:17:50.541Z,56.81
2017-09-15T14:18:59.540Z,57.62
2017-09-15T14:20:08.068Z,55.09
2017-09-15T14:21:17.678Z,55.54
2017-09-15T14:22:26.638Z,59.75
2017-09-15T14:23:36.624Z,57.42
2017-09-15T14:24:45.692Z,57.31
2017-09-15T14:25:54.689Z,58.17
2017-09-15T14:27:04.668Z,57.00
2017-09-15T14:28:13.645Z,56.61
2017-09-15T14:29:24.699Z,57.28
2017-09-15T14:30:34.610Z,56.82
2017-09-15T14:31:43.555Z,57.68
2017-09-15T14:32:52.692Z,58.86
2017-09-15T14:34:02.576Z,58.34
2017-09-15T14:35:11.581Z,58.04
2017-09-15T14:36:20.624Z,57.58
2017-09-15T14:37:31.636Z,58.83
2017-09-15T14:38:39.952Z,57.36
2017-09-15T14:39:48.454Z,57.54
2017-09-15T14:40:57.596Z,58.66
2017-09-15T14:42:07.637Z,58.71
2017-09-15T14:43:17.620Z,58.69
2017-09-15T14:44:27.609Z,58.49
2017-09-15T14:45:36.603Z,58.18
2017-09-15T14:46:48.489Z,57.09
2017-09-15T14:47:58.505Z,57.74
2017-09-15T14:49:06.396Z,56.79
2017-09-15T14:50:15.554Z,57.27
2017-09-15T14:51:24.562Z,57.10
2017-09-15T14:52:34.591Z,57.31
2017-09-15T14:53:43.482Z,56.81
2017-09-15T14:54:53.554Z,57.04
2017-09-15T14:56:03.575Z,56.60
2017-09-15T14:57:13.635Z,57.81
2017-09-15T14:58:22.631Z,58.14
2017-09-15T14:59:34.690Z,57.88
2017-09-15T15:00:48.829Z,57.23
2017-09-15T15:02:01.733Z,57.59
2017-09-15T15:03:11.682Z,57.06
2017-09-15T15:04:22.514Z,57.06
2017-09-15T15:05:33.470Z,58.36
2017-09-15T15:06:42.393Z,57.19
2017-09-15T15:07:53.610Z,57.74
2017-09-15T15:09:04.566Z,57.02
2017-09-15T15:10:17.648Z,57.50
2017-09-15T15:11:29.169Z,57.81
2017-09-15T15:12:40.588Z,57.49
2017-09-15T15:13:51.586Z,58.56
2017-09-15T15:15:02.465Z,57.50
2017-09-15T15:16:13.527Z,57.56
2017-09-15T15:17:23.565Z,56.37
2017-09-15T15:18:34.531Z,56.36
2017-09-15T15:19:44.398Z,56.84
2017-09-15T15:20:52.486Z,58.71
2017-09-15T15:22:01.803Z,59.03
2017-09-15T15:23:13.288Z,56.52
2017-09-15T15:24:23.537Z,56.85
2017-09-15T15:25:34.379Z,56.53
2017-09-15T15:26:43.543Z,57.46
2017-09-15T15:27:53.433Z,57.72
2017-09-15T15:29:02.435Z,56.27
2017-09-15T15:30:11.581Z,56.66
2017-09-15T15:31:21.372Z,57.00
2017-09-15T15:32:31.437Z,58.09
2017-09-15T15:33:40.369Z,58.04
2017-09-15T15:34:51.268Z,57.61
2017-09-15T15:36:00.357Z,57.38
2017-09-15T15:37:11.772Z,57.03
2017-09-15T15:38:21.359Z,57.11
2017-09-15T15:39:30.440Z,56.93
2017-09-15T15:40:40.275Z,56.65
2017-09-15T15:41:51.280Z,56.52
2017-09-15T15:43:29.352Z,55.87
2017-09-15T15:44:36.355Z,56.39
2017-09-15T15:45:45.523Z,56.66
2017-09-15T15:46:58.685Z,56.77
2017-09-15T15:48:09.345Z,57.48
2017-09-15T15:49:20.213Z,58.03
2017-09-15T15:50:28.420Z,57.11
2017-09-15T15:51:36.286Z,57.48
2017-09-15T15:52:46.214Z,57.53
2017-09-15T15:53:56.321Z,57.60
2017-09-15T15:55:05.748Z,57.49
2017-09-15T15:56:16.219Z,58.32
2017-09-15T15:57:24.865Z,58.31
2017-09-15T15:58:33.343Z,58.03
2017-09-15T15:59:44.256Z,58.77
2017-09-15T16:00:53.404Z,58.65
2017-09-15T16:02:04.099Z,59.04
2017-09-15T16:03:14.190Z,59.71
2017-09-15T16:04:24.594Z,61.19
2017-09-15T16:05:34.117Z,62.90
2017-09-15T16:06:42.363Z,61.78
2017-09-15T16:07:52.294Z,61.43
2017-09-15T16:09:03.158Z,62.57
2017-09-15T16:10:10.744Z,63.15
2017-09-15T16:11:21.677Z,61.12
2017-09-15T16:12:32.282Z,62.31
2017-09-15T16:13:41.209Z,63.64
2017-09-15T16:14:51.277Z,63.95
2017-09-15T16:16:02.496Z,64.02
2017-09-15T16:17:13.180Z,64.05
2017-09-15T16:18:23.509Z,64.26
2017-09-15T16:19:32.236Z,63.86
2017-09-15T16:20:41.279Z,66.82
2017-09-15T16:21:51.353Z,67.06
2017-09-15T16:23:03.433Z,66.25
2017-09-15T16:24:14.237Z,66.57
2017-09-15T16:25:23.297Z,66.81
2017-09-15T16:26:35.191Z,64.99
2017-09-15T16:27:45.339Z,65.67
2017-09-15T16:28:56.043Z,64.25
2017-09-15T16:30:06.164Z,63.94
2017-09-15T16:31:14.982Z,63.55
2017-09-15T16:32:23.463Z,63.85
2017-09-15T16:33:33.544Z,63.53
2017-09-15T16:34:43.064Z,63.10
2017-09-15T16:35:54.326Z,63.57
2017-09-15T16:37:03.695Z,64.08
2017-09-15T16:38:19.289Z,62.22
2017-09-15T16:39:32.471Z,65.22
2017-09-15T16:40:45.287Z,64.37
2017-09-15T16:41:58.255Z,63.87
2017-09-15T16:43:11.774Z,64.24
2017-09-15T16:44:24.603Z,64.12
2017-09-15T16:45:37.338Z,64.59
2017-09-15T16:46:50.538Z,64.06
2017-09-15T16:48:03.558Z,63.84
2017-09-15T16:49:16.263Z,64.15
2017-09-15T16:50:24.237Z,64.64
2017-09-15T16:51:33.184Z,64.55
2017-09-15T16:52:41.183Z,65.81
2017-09-15T16:53:49.204Z,66.11
2017-09-15T16:54:57.300Z,65.24
2017-09-15T16:56:07.138Z,65.74
2017-09-15T16:57:16.226Z,66.34
2017-09-15T16:58:28.520Z,66.07
2017-09-15T16:59:40.450Z,66.42
2017-09-15T17:00:53.389Z,69.11
2017-09-15T17:02:03.563Z,68.00
2017-09-15T17:03:17.612Z,67.69
2017-09-15T17:04:30.736Z,68.15
2017-09-15T17:05:41.352Z,68.53
2017-09-15T17:06:52.385Z,67.52
2017-09-15T17:08:05.435Z,65.58
2017-09-15T17:09:20.495Z,67.43
2017-09-15T17:10:31.306Z,68.96
2017-09-15T17:11:45.886Z,67.57
2017-09-15T17:13:01.282Z,67.46
2017-09-15T17:14:13.402Z,67.10
2017-09-15T17:15:24.381Z,67.24
2017-09-15T17:16:35.201Z,66.64
2017-09-15T17:17:47.775Z,67.54
2017-09-15T17:18:58.956Z,67.83
2017-09-15T17:20:11.275Z,67.95
2017-09-15T17:21:20.259Z,66.55
2017-09-15T17:22:29.175Z,67.73
2017-09-15T17:23:38.123Z,67.55
2017-09-15T17:24:47.160Z,66.07
2017-09-15T17:25:55.610Z,64.65
2017-09-15T17:27:05.086Z,63.72
2017-09-15T17:28:18.657Z,64.26
2017-09-15T17:29:26.397Z,63.86
2017-09-15T17:30:34.927Z,64.75
2017-09-15T17:31:42.195Z,64.90
2017-09-15T17:32:51.179Z,64.41
2017-09-15T17:34:00.243Z,64.19
2017-09-15T17:35:08.655Z,65.86
2017-09-15T17:36:16.580Z,65.84
2017-09-15T17:37:23.839Z,65.55
2017-09-15T17:38:31.033Z,66.09
2017-09-15T17:39:38.057Z,65.74
2017-09-15T17:40:45.505Z,64.59
2017-09-15T17:41:52.067Z,64.24
2017-09-15T17:42:59.204Z,64.80
2017-09-15T17:44:05.962Z,64.58
2017-09-15T17:45:13.032Z,64.89
2017-09-15T17:46:19.492Z,65.03
2017-09-15T17:47:26.443Z,65.38
2017-09-15T17:48:33.573Z,65.58
2017-09-15T17:49:40.405Z,65.19
2017-09-15T17:50:47.389Z,65.85
2017-09-15T17:51:53.895Z,65.58
2017-09-15T17:53:04.065Z,66.43
2017-09-15T17:54:12.319Z,66.43
2017-09-15T17:55:20.886Z,66.27
2017-09-15T17:56:27.074Z,66.11
2017-09-15T17:57:33.556Z,66.22
2017-09-15T17:58:39.995Z,66.27
2017-09-15T17:59:46.728Z,67.01
2017-09-15T18:00:53.058Z,66.95
2017-09-15T18:01:59.256Z,66.53
2017-09-15T18:03:05.404Z,66.61
2017-09-15T18:04:11.762Z,66.62
2017-09-15T18:05:17.982Z,66.91
2017-09-15T18:06:24.234Z,67.47
2017-09-15T18:07:30.371Z,67.21
2017-09-15T18:08:37.251Z,67.87
2017-09-15T18:09:45.032Z,68.98
2017-09-15T18:10:53.360Z,69.97
2017-09-15T18:12:02.008Z,69.54
2017-09-15T18:13:12.024Z,71.75
2017-09-15T18:14:20.982Z,70.94
2017-09-15T18:15:29.276Z,70.75
2017-09-15T18:16:36.881Z,72.61
2017-09-15T18:17:43.358Z,72.86
2017-09-15T18:18:51.281Z,72.47
2017-09-15T18:19:58.397Z,73.71
2017-09-15T18:21:04.722Z,74.04
2017-09-15T18:22:10.888Z,74.25
2017-09-15T18:23:19.149Z,74.92
2017-09-15T18:24:28.585Z,74.49
2017-09-15T18:25:37.867Z,74.88
2017-09-15T18:26:47.120Z,75.40
2017-09-15T18:27:57.071Z,76.65
2017-09-15T18:29:04.796Z,77.51
2017-09-15T18:30:14.545Z,77.30
2017-09-15T18:31:23.104Z,78.26
2017-09-15T18:32:32.329Z,78.03
2017-09-15T18:33:40.802Z,78.50
2017-09-15T18:34:49.763Z,78.72
2017-09-15T18:35:59.156Z,79.17
2017-09-15T18:37:06.148Z,79.55
2017-09-15T18:38:15.374Z,79.49
2017-09-15T18:39:23.636Z,79.95
2017-09-15T18:40:31.661Z,79.84
2017-09-15T18:41:39.409Z,79.84
2017-09-15T18:42:48.189Z,80.08
2017-09-15T18:43:54.642Z,79.58
2017-09-15T18:45:02.636Z,79.80
2017-09-15T18:46:11.720Z,79.88
2017-09-15T18:47:20.409Z,80.95
2017-09-15T18:48:29.929Z,80.91
2017-09-15T18:49:39.980Z,81.06
2017-09-15T18:50:48.406Z,81.02
2017-09-15T18:51:57.859Z,82.04
2017-09-15T18:53:06.986Z,81.87
2017-09-15T18:54:16.127Z,81.76
2017-09-15T18:55:24.624Z,82.17
2017-09-15T18:56:33.393Z,83.23
2017-09-15T18:57:41.894Z,82.34
2017-09-15T18:58:52.821Z,82.21
2017-09-15T19:00:01.199Z,82.40
2017-09-15T19:01:10.048Z,83.66
2017-09-15T19:02:18.980Z,83.76
2017-09-15T19:03:27.344Z,83.81
2017-09-15T19:04:35.995Z,83.74
2017-09-15T19:05:44.385Z,83.80
2017-09-15T19:06:53.396Z,83.91
2017-09-15T19:08:01.801Z,84.33
2017-09-15T19:09:11.262Z,84.06
2017-09-15T19:10:20.985Z,83.72
2017-09-15T19:11:29.848Z,84.19
2017-09-15T19:12:38.609Z,84.56
2017-09-15T19:13:46.765Z,84.17
2017-09-15T19:14:55.910Z,84.16
2017-09-15T19:16:04.177Z,84.50
2017-09-15T19:17:13.138Z,84.60
2017-09-15T19:18:22.208Z,85.41
2017-09-15T19:19:32.342Z,86.08
2017-09-15T19:20:40.490Z,86.32
2017-09-15T19:21:50.597Z,87.11
2017-09-15T19:22:58.703Z,86.63
2017-09-15T19:24:07.868Z,85.81
2017-09-15T19:25:18.104Z,86.17
2017-09-15T19:26:25.142Z,86.08
2017-09-15T19:27:31.499Z,86.02
2017-09-15T19:28:38.169Z,85.99
2017-09-15T19:29:44.534Z,86.54
2017-09-15T19:30:50.732Z,87.73
2017-09-15T19:31:56.838Z,88.18
2017-09-15T19:33:03.016Z,88.29
2017-09-15T19:34:09.229Z,87.47
2017-09-15T19:35:15.397Z,87.24
2017-09-15T19:36:21.594Z,87.56
2017-09-15T19:37:27.761Z,87.22
2017-09-15T19:38:33.933Z,87.71
2017-09-15T19:39:39.865Z,88.39
2017-09-15T19:40:45.770Z,88.67
2017-09-15T19:41:51.970Z,89.01
2017-09-15T19:42:58.113Z,89.38
2017-09-15T19:44:04.241Z,88.89
2017-09-15T19:45:10.374Z,89.17
2017-09-15T19:46:16.494Z,89.54
2017-09-15T19:47:22.705Z,89.99
2017-09-15T19:48:28.832Z,90.02
2017-09-15T19:49:35.364Z,90.05
2017-09-15T19:50:41.458Z,88.84
2017-09-15T19:51:47.573Z,89.61
2017-09-15T19:52:53.691Z,90.11
2017-09-15T19:53:59.789Z,90.59
2017-09-15T19:55:05.867Z,89.31
2017-09-15T19:56:12.001Z,89.33
2017-09-15T19:57:18.198Z,89.82
2017-09-15T19:58:24.375Z,89.87
2017-09-15T19:59:30.475Z,89.90
2017-09-15T20:00:36.607Z,89.39
2017-09-15T20:01:42.734Z,89.23
2017-09-15T20:02:48.882Z,89.69
2017-09-15T20:03:55.015Z,89.37
2017-09-15T20:05:01.079Z,89.17
2017-09-15T20:06:07.182Z,89.86
2017-09-15T20:07:13.366Z,89.93
2017-09-15T20:08:19.471Z,90.64
2017-09-15T20:09:25.465Z,90.66
2017-09-15T20:10:31.573Z,90.88
2017-09-15T20:11:37.745Z,91.10
2017-09-15T20:12:43.915Z,91.16
2017-09-15T20:13:50.064Z,90.95
2017-09-15T20:14:56.120Z,90.94
2017-09-15T20:16:02.293Z,90.66
2017-09-15T20:17:09.142Z,90.26
2017-09-15T20:18:15.271Z,90.67
2017-09-15T20:19:21.381Z,90.64
2017-09-15T20:20:27.512Z,91.33
2017-09-15T20:21:33.492Z,91.68
2017-09-15T20:22:39.607Z,91.74
2017-09-15T20:23:45.731Z,91.66
2017-09-15T20:24:51.659Z,91.12
2017-09-15T20:25:57.755Z,91.06
2017-09-15T20:27:03.866Z,91.17
2017-09-15T20:28:10.001Z,91.42
2017-09-15T20:29:16.069Z,92.65
2017-09-15T20:30:22.299Z,92.45
2017-09-15T20:31:28.363Z,92.29
2017-09-15T20:32:34.415Z,92.44
2017-09-15T20:33:40.533Z,92.56
2017-09-15T20:34:46.620Z,94.00
2017-09-15T20:35:52.795Z,93.65
2017-09-15T20:36:58.861Z,93.49
2017-09-15T20:38:04.986Z,93.27
2017-09-15T20:39:11.134Z,93.19
2017-09-15T20:40:17.261Z,93.30
2017-09-15T20:41:23.187Z,93.06
2017-09-15T20:42:29.249Z,93.01
2017-09-15T20:43:35.172Z,93.13
2017-09-15T20:44:41.267Z,93.36
2017-09-15T20:45:47.327Z,93.92
2017-09-15T20:46:53.507Z,93.68
2017-09-15T20:47:59.578Z,93.79
2017-09-15T20:49:05.632Z,93.57
2017-09-15T20:50:11.559Z,93.35
2017-09-15T20:51:17.689Z,93.39
2017-09-15T20:52:24.009Z,93.90
2017-09-15T20:53:30.090Z,93.66
2017-09-15T20:54:36.266Z,93.53
2017-09-15T20:55:42.350Z,93.67
2017-09-15T20:56:48.542Z,94.34
2017-09-15T20:57:54.614Z,94.41
2017-09-15T20:59:00.751Z,93.42
2017-09-15T21:00:06.907Z,93.43
2017-09-15T21:01:13.084Z,94.00
2017-09-15T21:02:19.216Z,94.26
2017-09-15T21:03:25.663Z,93.86
2017-09-15T21:04:31.722Z,94.21
2017-09-15T21:05:37.809Z,94.68
2017-09-15T21:06:43.928Z,94.16
2017-09-15T21:07:50.055Z,94.27
2017-09-15T21:08:56.138Z,94.33
2017-09-15T21:10:02.244Z,94.55
2017-09-15T21:11:08.359Z,95.27
2017-09-15T21:12:14.534Z,95.87
2017-09-15T21:13:20.708Z,95.37
2017-09-15T21:14:26.822Z,95.89
2017-09-15T21:15:32.878Z,95.88
2017-09-15T21:16:38.799Z,95.99
2017-09-15T21:17:44.726Z,96.19
2017-09-15T21:18:50.830Z,95.90
2017-09-15T21:19:56.957Z,95.13
2017-09-15T21:21:03.101Z,95.39
2017-09-15T21:22:09.196Z,94.21
2017-09-15T21:23:15.559Z,94.19
2017-09-15T21:24:21.753Z,94.61
2017-09-15T21:25:28.150Z,94.46
2017-09-15T21:26:34.244Z,94.40
2017-09-15T21:27:40.367Z,93.87
2017-09-15T21:28:46.483Z,93.94
2017-09-15T21:29:52.651Z,94.27
2017-09-15T21:30:58.734Z,94.36
2017-09-15T21:32:04.589Z,94.29
2017-09-15T21:33:10.683Z,95.04
2017-09-15T21:34:16.775Z,94.44
2017-09-15T21:35:22.854Z,95.08
2017-09-15T21:36:29.121Z,94.70
2017-09-15T21:37:35.206Z,95.67
2017-09-15T21:38:41.085Z,95.96
2017-09-15T21:39:47.174Z,96.39
2017-09-15T21:40:53.269Z,96.29
2017-09-15T21:41:59.171Z,96.53
2017-09-15T21:43:05.255Z,96.64
2017-09-15T21:44:11.332Z,96.50
2017-09-15T21:45:17.440Z,96.27
2017-09-15T21:46:23.619Z,96.06
2017-09-15T21:47:29.734Z,96.21
2017-09-15T21:48:35.814Z,96.89
2017-09-15T21:49:41.859Z,96.94
2017-09-15T21:50:47.769Z,97.45
2017-09-15T21:51:53.946Z,97.16
2017-09-15T21:53:00.019Z,97.13
2017-09-15T21:54:06.135Z,97.50
2017-09-15T21:55:12.245Z,98.00
2017-09-15T21:56:18.124Z,97.60
2017-09-15T21:57:24.481Z,98.88
2017-09-15T21:58:30.572Z,99.35
2017-09-15T21:59:36.686Z,99.11
2017-09-15T22:00:42.772Z,98.95
2017-09-15T22:01:48.667Z,98.37
2017-09-15T22:02:54.809Z,97.63
2017-09-15T22:04:06.459Z,96.31
2017-09-15T22:05:12.603Z,95.61
2017-09-15T22:06:18.345Z,95.55
2017-09-15T22:07:24.433Z,95.13
2017-09-15T22:08:30.317Z,95.54
2017-09-15T22:09:36.454Z,96.21
2017-09-15T22:10:42.539Z,96.26
2017-09-15T22:11:48.625Z,96.67
2017-09-15T22:12:54.758Z,97.05
2017-09-15T22:14:00.956Z,97.23
2017-09-15T22:15:07.067Z,97.06
2017-09-15T22:16:13.237Z,97.09
2017-09-15T22:17:19.328Z,96.96
2017-09-15T22:18:25.430Z,96.52
2017-09-15T22:19:31.514Z,95.95
2017-09-15T22:20:37.623Z,95.99
2017-09-15T22:21:43.673Z,96.44
2017-09-15T22:22:49.758Z,95.94
2017-09-15T22:23:55.951Z,96.10
2017-09-15T22:25:02.037Z,95.72
2017-09-15T22:26:08.214Z,96.46
2017-09-15T22:27:14.442Z,97.38
2017-09-15T22:28:20.561Z,97.12
2017-09-15T22:29:26.702Z,96.97
2017-09-15T22:30:32.795Z,96.96
2017-09-15T22:31:38.666Z,97.05
2017-09-15T22:32:44.700Z,96.40
2017-09-15T22:33:50.763Z,96.84
2017-09-15T22:34:56.862Z,97.29
2017-09-15T22:36:02.932Z,97.62
2017-09-15T22:37:08.991Z,98.04
2017-09-15T22:38:15.115Z,98.30
2017-09-15T22:39:21.214Z,98.68
2017-09-15T22:40:26.578Z,98.13
2017-09-15T22:41:32.452Z,98.72
2017-09-15T22:42:38.538Z,98.52
2017-09-15T22:43:44.602Z,98.54
2017-09-15T22:44:50.651Z,98.43
2017-09-15T22:45:56.799Z,98.25
2017-09-15T22:47:02.887Z,98.01
2017-09-15T22:48:09.050Z,98.01
2017-09-15T22:49:15.162Z,97.84
2017-09-15T22:50:21.497Z,98.22
2017-09-15T22:51:27.413Z,98.68
2017-09-15T22:52:33.445Z,98.87
2017-09-15T22:53:39.486Z,98.93
2017-09-15T22:54:45.310Z,99.36
2017-09-15T22:55:51.344Z,99.23
2017-09-15T22:56:57.446Z,98.97
2017-09-15T22:58:03.502Z,98.97
2017-09-15T22:59:09.740Z,98.41
2017-09-15T23:00:15.881Z,98.16
2017-09-15T23:01:21.808Z,98.64
2017-09-15T23:02:27.653Z,98.47
2017-09-15T23:03:33.699Z,98.26
2017-09-15T23:04:39.788Z,98.39
2017-09-15T23:05:45.886Z,98.15
2017-09-15T23:06:51.955Z,97.51
2017-09-15T23:07:58.068Z,96.90
2017-09-15T23:09:03.711Z,96.21
2017-09-15T23:10:09.812Z,96.61
2017-09-15T23:11:15.980Z,96.51
2017-09-15T23:12:22.013Z,96.24
2017-09-15T23:13:28.113Z,96.76
2017-09-15T23:14:34.195Z,97.46
2017-09-15T23:15:40.090Z,97.73
2017-09-15T23:16:47.033Z,98.65
2017-09-15T23:17:53.109Z,98.61
2017-09-15T23:18:59.214Z,98.19
2017-09-15T23:20:05.257Z,98.36
2017-09-15T23:21:11.490Z,98.41
2017-09-15T23:22:17.534Z,98.82
2017-09-15T23:23:23.375Z,98.53
2017-09-15T23:24:29.452Z,98.92
2017-09-15T23:25:35.555Z,98.62
2017-09-15T23:26:41.648Z,98.42
2017-09-15T23:27:47.758Z,98.51
2017-09-15T23:28:53.896Z,99.21
2017-09-15T23:29:59.818Z,99.25
2017-09-15T23:31:05.920Z,98.54
2017-09-15T23:32:11.970Z,98.77
2017-09-15T23:33:18.036Z,98.57
2017-09-15T23:34:24.085Z,98.24
2017-09-15T23:35:30.196Z,97.49
2017-09-15T23:36:36.301Z,97.17
2017-09-15T23:37:42.390Z,97.03
2017-09-15T23:38:48.463Z,96.73
2017-09-15T23:39:54.554Z,96.53
2017-09-15T23:41:00.682Z,96.60
2017-09-15T23:42:06.795Z,96.94
2017-09-15T23:43:12.881Z,96.74
2017-09-15T23:44:18.961Z,96.89
2017-09-15T23:45:25.040Z,96.82
2017-09-15T23:46:31.183Z,97.07
2017-09-15T23:47:37.257Z,97.18
2017-09-15T23:48:43.316Z,96.86
2017-09-15T23:49:49.458Z,96.57
2017-09-15T23:50:55.821Z,96.85
2017-09-15T23:52:01.777Z,96.94
2017-09-15T23:53:08.107Z,96.65
2017-09-15T23:54:14.307Z,96.78
2017-09-15T23:55:20.442Z,96.54
2017-09-15T23:56:26.497Z,96.72
2017-09-15T23:57:32.629Z,97.08
2017-09-15T23:58:38.712Z,97.44
2017-09-15T23:59:45.532Z,97.27
